createdAt,value
2022-10-22T00:00:30.779Z,94514.50
2022-10-22T00:02:57.476Z,94521.38
2022-10-22T00:05:24.194Z,94521.38
2022-10-22T00:07:50.911Z,94529.00
2022-10-22T00:10:20.977Z,94537.31
2022-10-22T00:12:47.699Z,94551.53
2022-10-22T00:15:14.461Z,94565.19
2022-10-22T00:17:41.510Z,94582.44
2022-10-22T00:20:14.735Z,94577.50
2022-10-22T00:22:41.396Z,94564.16
2022-10-22T00:25:08.518Z,94553.81
2022-10-22T00:27:35.292Z,94559.41
2022-10-22T00:30:02.145Z,94555.66
2022-10-22T00:32:28.805Z,94546.06
2022-10-22T00:34:55.658Z,94533.50
2022-10-22T00:37:22.322Z,94523.84
2022-10-22T00:39:48.941Z,94513.53
2022-10-22T00:42:20.064Z,94503.91
2022-10-22T00:45:05.304Z,94507.09
2022-10-22T00:47:45.222Z,94499.97
2022-10-22T00:50:16.612Z,94497.91
2022-10-22T00:52:43.578Z,94512.84
2022-10-22T00:55:11.362Z,94512.53
2022-10-22T00:57:38.141Z,94529.81
2022-10-22T01:00:06.016Z,94535.09
2022-10-22T01:02:33.186Z,94548.44
2022-10-22T01:04:59.890Z,94554.81
2022-10-22T01:07:26.728Z,94557.88
2022-10-22T01:10:06.039Z,94562.41
2022-10-22T01:12:44.827Z,94565.63
2022-10-22T01:15:21.233Z,94560.31
2022-10-22T01:17:59.771Z,94541.34
2022-10-22T01:20:39.630Z,94552.69
2022-10-22T01:23:18.481Z,94547.94
2022-10-22T01:25:50.832Z,94542.25
2022-10-22T01:28:42.252Z,94537.97
2022-10-22T01:31:12.135Z,94542.22
2022-10-22T01:33:40.473Z,94538.56
2022-10-22T01:36:08.098Z,94550.38
2022-10-22T01:38:34.814Z,94553.16
2022-10-22T01:41:01.951Z,94556.78
2022-10-22T01:43:28.644Z,94560.81
2022-10-22T01:45:59.567Z,94569.56
2022-10-22T01:48:31.510Z,94573.53
2022-10-22T01:51:11.476Z,94573.34
2022-10-22T01:53:54.208Z,94584.09
2022-10-22T01:56:44.495Z,94593.84
2022-10-22T01:59:42.525Z,94601.03
2022-10-22T02:02:29.112Z,94611.00
2022-10-22T02:05:13.210Z,94615.56
2022-10-22T02:07:45.644Z,94611.25
2022-10-22T02:10:13.120Z,94604.38
2022-10-22T02:12:42.345Z,94593.41
2022-10-22T02:15:11.832Z,94600.84
2022-10-22T02:17:39.627Z,94611.59
2022-10-22T02:20:10.229Z,94618.19
2022-10-22T02:22:37.739Z,94620.63
2022-10-22T02:25:06.348Z,94611.50
2022-10-22T02:27:47.901Z,94612.31
2022-10-22T02:30:18.485Z,94607.75
2022-10-22T02:32:56.859Z,94622.59
2022-10-22T02:35:25.979Z,94612.28
2022-10-22T02:37:55.120Z,94614.16
2022-10-22T02:40:22.415Z,94610.28
2022-10-22T02:42:50.578Z,94615.66
2022-10-22T02:45:19.545Z,94626.84
2022-10-22T02:47:47.027Z,94626.41
2022-10-22T02:50:14.113Z,94625.84
2022-10-22T02:52:41.318Z,94610.69
2022-10-22T02:55:08.665Z,94614.44
2022-10-22T02:57:35.457Z,94614.16
2022-10-22T03:00:02.249Z,94601.66
2022-10-22T03:02:28.841Z,94595.38
2022-10-22T03:04:55.343Z,94594.66
2022-10-22T03:07:21.901Z,94597.31
2022-10-22T03:09:48.569Z,94617.72
2022-10-22T03:12:15.173Z,94634.53
2022-10-22T03:14:41.770Z,94638.50
2022-10-22T03:17:09.578Z,94637.50
2022-10-22T03:19:36.313Z,94643.56
2022-10-22T03:22:14.362Z,94649.25
2022-10-22T03:24:46.329Z,94652.88
2022-10-22T03:27:15.425Z,94654.94
2022-10-22T03:29:42.946Z,94664.69
2022-10-22T03:32:09.580Z,94668.28
2022-10-22T03:34:36.300Z,94658.06
2022-10-22T03:37:03.000Z,94659.19
2022-10-22T03:39:34.426Z,94652.28
2022-10-22T03:42:01.357Z,94659.78
2022-10-22T03:44:28.583Z,94672.47
2022-10-22T03:46:58.683Z,94657.16
2022-10-22T03:49:28.258Z,94663.34
2022-10-22T03:51:54.832Z,94669.72
2022-10-22T03:54:21.412Z,94657.97
2022-10-22T03:56:47.949Z,94666.56
2022-10-22T03:59:15.136Z,94666.66
2022-10-22T04:01:41.899Z,94660.63
2022-10-22T04:04:08.495Z,94655.19
2022-10-22T04:06:35.138Z,94649.94
2022-10-22T04:09:02.329Z,94654.47
2022-10-22T04:11:28.979Z,94654.16
2022-10-22T04:13:55.598Z,94660.47
2022-10-22T04:16:25.053Z,94657.53
2022-10-22T04:18:54.117Z,94656.88
2022-10-22T04:21:20.760Z,94657.84
2022-10-22T04:23:52.132Z,94664.53
2022-10-22T04:26:19.971Z,94657.09
2022-10-22T04:28:47.632Z,94651.81
2022-10-22T04:31:16.353Z,94655.69
2022-10-22T04:33:43.216Z,94656.69
2022-10-22T04:36:11.998Z,94669.38
2022-10-22T04:38:39.524Z,94668.66
2022-10-22T04:41:18.150Z,94676.88
2022-10-22T04:43:45.561Z,94674.22
2022-10-22T04:46:13.198Z,94683.22
2022-10-22T04:48:41.804Z,94697.06
2022-10-22T04:51:11.419Z,94685.88
2022-10-22T04:53:38.108Z,94681.00
2022-10-22T04:56:29.221Z,94684.16
2022-10-22T04:59:05.133Z,94670.69
2022-10-22T05:01:41.627Z,94677.19
2022-10-22T05:04:13.450Z,94683.44
2022-10-22T05:06:40.109Z,94679.81
2022-10-22T05:09:10.922Z,94674.09
2022-10-22T05:11:41.644Z,94671.03
2022-10-22T05:14:10.113Z,94679.19
2022-10-22T05:16:38.201Z,94676.72
2022-10-22T05:19:05.519Z,94659.50
2022-10-22T05:21:32.238Z,94646.06
2022-10-22T05:24:02.200Z,94648.38
2022-10-22T05:26:29.284Z,94656.50
2022-10-22T05:28:56.189Z,94666.78
2022-10-22T05:31:22.822Z,94656.63
2022-10-22T05:33:49.639Z,94641.31
2022-10-22T05:36:21.701Z,94630.41
2022-10-22T05:38:49.101Z,94635.41
2022-10-22T05:41:18.666Z,94657.91
2022-10-22T05:43:45.319Z,94658.66
2022-10-22T05:46:19.874Z,94671.84
2022-10-22T05:48:59.617Z,94664.16
2022-10-22T05:51:28.853Z,94665.34
2022-10-22T05:53:58.130Z,94670.41
2022-10-22T05:56:26.203Z,94670.41
2022-10-22T05:58:52.923Z,94654.66
2022-10-22T06:01:28.294Z,94658.94
2022-10-22T06:03:57.392Z,94653.16
2022-10-22T06:06:38.364Z,94656.00
2022-10-22T06:09:10.422Z,94651.94
2022-10-22T06:11:37.272Z,94652.03
2022-10-22T06:14:07.038Z,94650.09
2022-10-22T06:16:33.821Z,94653.94
2022-10-22T06:19:02.201Z,94661.06
2022-10-22T06:21:29.980Z,94666.16
2022-10-22T06:23:57.661Z,94672.59
2022-10-22T06:26:24.479Z,94679.09
2022-10-22T06:28:51.048Z,94687.31
2022-10-22T06:31:17.586Z,94683.50
2022-10-22T06:33:44.343Z,94692.56
2022-10-22T06:36:16.946Z,94688.31
2022-10-22T06:38:43.967Z,94700.13
2022-10-22T06:41:16.591Z,94700.56
2022-10-22T06:43:48.313Z,94703.63
2022-10-22T06:46:20.296Z,94710.25
2022-10-22T06:48:51.818Z,94708.50
2022-10-22T06:51:19.403Z,94709.16
2022-10-22T06:53:45.998Z,94720.22
2022-10-22T06:56:16.082Z,94713.97
2022-10-22T06:58:42.709Z,94718.03
2022-10-22T07:01:12.603Z,94719.72
2022-10-22T07:03:42.640Z,94725.94
2022-10-22T07:06:12.269Z,94727.38
2022-10-22T07:08:40.209Z,94724.34
2022-10-22T07:11:18.638Z,94737.84
2022-10-22T07:13:46.006Z,94738.47
2022-10-22T07:16:13.060Z,94741.41
2022-10-22T07:18:40.710Z,94752.88
2022-10-22T07:21:09.010Z,94752.66
2022-10-22T07:23:36.058Z,94760.00
2022-10-22T07:26:03.408Z,94773.16
2022-10-22T07:28:30.768Z,94780.19
2022-10-22T07:30:57.271Z,94772.00
2022-10-22T07:33:23.819Z,94781.50
2022-10-22T07:35:50.341Z,94786.91
2022-10-22T07:38:16.844Z,94786.31
2022-10-22T07:40:43.561Z,94791.09
2022-10-22T07:43:10.116Z,94791.53
2022-10-22T07:45:36.655Z,94809.00
2022-10-22T07:48:03.344Z,94805.16
2022-10-22T07:50:29.878Z,94803.56
2022-10-22T07:52:58.201Z,94812.72
2022-10-22T07:55:25.414Z,94804.91
2022-10-22T07:57:52.052Z,94807.31
2022-10-22T08:00:20.600Z,94807.00
2022-10-22T08:02:49.775Z,94813.72
2022-10-22T08:05:16.633Z,94816.59
2022-10-22T08:07:43.736Z,94820.44
2022-10-22T08:10:12.172Z,94825.38
2022-10-22T08:12:39.672Z,94822.41
2022-10-22T08:15:07.144Z,94828.47
2022-10-22T08:17:33.742Z,94830.34
2022-10-22T08:20:00.316Z,94837.91
2022-10-22T08:22:26.826Z,94830.91
2022-10-22T08:24:53.600Z,94837.34
2022-10-22T08:27:20.365Z,94833.91
2022-10-22T08:29:46.954Z,94835.34
2022-10-22T08:32:13.815Z,94835.78
2022-10-22T08:34:40.468Z,94848.66
2022-10-22T08:37:08.534Z,94835.97
2022-10-22T08:39:35.718Z,94843.19
2022-10-22T08:42:40.017Z,94854.03
2022-10-22T08:45:10.453Z,94850.09
2022-10-22T08:48:21.267Z,94856.22
2022-10-22T08:50:50.992Z,94856.00
2022-10-22T08:53:21.362Z,94861.94
2022-10-22T08:55:52.189Z,94865.44
2022-10-22T08:59:04.248Z,94859.41
2022-10-22T09:01:38.322Z,94865.06
2022-10-22T09:04:16.144Z,94868.16
2022-10-22T09:06:47.540Z,94858.34
2022-10-22T09:09:18.367Z,94859.47
2022-10-22T09:11:52.057Z,94863.53
2022-10-22T09:14:22.566Z,94866.59
2022-10-22T09:17:14.235Z,94870.88
2022-10-22T09:20:05.122Z,94882.34
2022-10-22T09:22:37.937Z,94877.31
2022-10-22T09:25:13.554Z,94882.78
2022-10-22T09:27:40.416Z,94879.88
2022-10-22T09:30:11.461Z,94879.19
2022-10-22T09:32:38.002Z,94881.50
2022-10-22T09:35:04.958Z,94892.72
2022-10-22T09:37:31.503Z,94887.84
2022-10-22T09:40:03.851Z,94888.56
2022-10-22T09:42:33.272Z,94896.00
2022-10-22T09:45:00.219Z,94901.72
2022-10-22T09:48:00.685Z,94900.50
2022-10-22T09:50:49.946Z,94906.41
2022-10-22T09:53:27.155Z,94914.25
2022-10-22T09:55:59.661Z,94914.69
2022-10-22T09:58:27.624Z,94908.97
2022-10-22T10:01:00.911Z,94913.47
2022-10-22T10:03:33.419Z,94906.38
2022-10-22T10:06:05.056Z,94898.03
2022-10-22T10:08:33.295Z,94903.66
2022-10-22T10:11:05.868Z,94904.59
2022-10-22T10:13:43.973Z,94900.19
2022-10-22T10:16:28.738Z,94911.50
2022-10-22T10:19:01.526Z,94904.59
2022-10-22T10:21:54.731Z,94900.34
2022-10-22T10:24:45.602Z,94908.94
2022-10-22T10:27:20.206Z,94904.78
2022-10-22T10:30:00.201Z,94915.47
2022-10-22T10:32:39.121Z,94911.22
2022-10-22T10:35:28.383Z,94916.34
2022-10-22T10:38:24.685Z,94917.47
2022-10-22T10:41:07.228Z,94921.94
2022-10-22T10:43:45.777Z,94916.56
2022-10-22T10:46:42.156Z,94925.41
2022-10-22T10:49:26.408Z,94916.47
2022-10-22T10:51:58.890Z,94917.22
2022-10-22T10:54:49.621Z,94919.72
2022-10-22T10:57:39.738Z,94917.22
2022-10-22T11:00:09.956Z,94910.88
2022-10-22T11:03:10.518Z,94917.50
2022-10-22T11:05:45.760Z,94905.22
2022-10-22T11:08:39.966Z,94914.97
2022-10-22T11:11:06.696Z,94909.88
2022-10-22T11:13:45.525Z,94910.28
2022-10-22T11:16:26.577Z,94908.13
2022-10-22T11:18:53.198Z,94915.28
2022-10-22T11:21:29.490Z,94910.09
2022-10-22T11:24:05.799Z,94908.34
2022-10-22T11:26:36.576Z,94901.75
2022-10-22T11:29:07.279Z,94925.47
2022-10-22T11:31:34.098Z,94913.97
2022-10-22T11:34:28.430Z,94916.00
2022-10-22T11:36:55.352Z,94909.25
2022-10-22T11:39:43.046Z,94910.06
2022-10-22T11:42:21.697Z,94916.69
2022-10-22T11:45:00.141Z,94912.09
2022-10-22T11:47:30.052Z,94907.69
2022-10-22T11:50:19.485Z,94911.47
2022-10-22T11:53:06.014Z,94902.13
2022-10-22T11:55:55.584Z,94905.22
2022-10-22T11:58:28.574Z,94907.38
2022-10-22T12:00:56.470Z,94899.91
2022-10-22T12:03:28.865Z,94909.56
2022-10-22T12:06:13.341Z,94904.88
2022-10-22T12:08:44.824Z,94896.81
2022-10-22T12:11:11.400Z,94904.56
2022-10-22T12:13:59.015Z,94909.34
2022-10-22T12:16:37.944Z,94899.34
2022-10-22T12:19:17.819Z,94899.59
2022-10-22T12:21:49.356Z,94891.97
2022-10-22T12:24:19.414Z,94888.59
2022-10-22T12:26:47.066Z,94900.16
2022-10-22T12:29:16.128Z,94898.19
2022-10-22T12:31:45.127Z,94893.06
2022-10-22T12:34:17.672Z,94894.03
2022-10-22T12:36:46.567Z,94895.56
2022-10-22T12:39:19.703Z,94890.16
2022-10-22T12:41:46.734Z,94889.53
2022-10-22T12:44:16.649Z,94889.38
2022-10-22T12:46:51.751Z,94891.38
2022-10-22T12:49:23.730Z,94888.69
2022-10-22T12:51:50.341Z,94879.91
2022-10-22T12:54:29.349Z,94885.22
2022-10-22T12:56:57.167Z,94882.91
2022-10-22T12:59:27.976Z,94890.53
2022-10-22T13:01:56.030Z,94884.84
2022-10-22T13:04:35.931Z,94881.91
2022-10-22T13:07:19.867Z,94885.34
2022-10-22T13:09:59.115Z,94895.09
2022-10-22T13:12:35.981Z,94885.38
2022-10-22T13:15:27.269Z,94884.50
2022-10-22T13:18:06.228Z,94880.94
2022-10-22T13:20:33.213Z,94885.72
2022-10-22T13:23:05.240Z,94879.44
2022-10-22T13:25:34.481Z,94880.31
2022-10-22T13:28:04.314Z,94882.63
2022-10-22T13:30:36.766Z,94882.88
2022-10-22T13:33:06.271Z,94885.00
2022-10-22T13:35:35.995Z,94886.06
2022-10-22T13:38:02.624Z,94891.88
2022-10-22T13:40:29.225Z,94878.78
2022-10-22T13:42:55.855Z,94886.09
2022-10-22T13:45:22.526Z,94882.50
2022-10-22T13:47:52.471Z,94883.28
2022-10-22T13:50:21.135Z,94885.38
2022-10-22T13:52:52.248Z,94885.16
2022-10-22T13:55:29.144Z,94895.59
2022-10-22T13:58:01.948Z,94877.75
2022-10-22T14:00:28.593Z,94880.44
2022-10-22T14:02:58.646Z,94881.50
2022-10-22T14:05:25.473Z,94876.75
2022-10-22T14:07:52.808Z,94887.47
2022-10-22T14:10:22.405Z,94888.59
2022-10-22T14:12:52.473Z,94889.09
2022-10-22T14:15:24.059Z,94889.78
2022-10-22T14:17:56.130Z,94896.34
2022-10-22T14:20:25.623Z,94891.59
2022-10-22T14:22:52.899Z,94891.41
2022-10-22T14:25:25.679Z,94888.25
2022-10-22T14:27:52.585Z,94904.53
2022-10-22T14:30:21.992Z,94910.53
2022-10-22T14:33:40.742Z,94900.97
2022-10-22T14:36:07.638Z,94894.28
2022-10-22T14:38:34.251Z,94891.22
2022-10-22T14:41:00.806Z,94897.06
2022-10-22T14:43:29.824Z,94896.22
2022-10-22T14:45:57.017Z,94898.13
2022-10-22T14:48:24.229Z,94901.53
2022-10-22T14:50:50.832Z,94897.25
2022-10-22T14:53:17.469Z,94894.94
2022-10-22T14:55:47.155Z,94893.03
2022-10-22T14:58:14.238Z,94895.31
2022-10-22T15:00:42.284Z,94896.41
2022-10-22T15:03:09.713Z,94881.13
2022-10-22T15:05:36.455Z,94902.09
2022-10-22T15:08:03.481Z,94903.50
2022-10-22T15:10:30.026Z,94901.75
2022-10-22T15:12:56.715Z,94895.88
2022-10-22T15:15:30.487Z,94901.56
2022-10-22T15:18:01.937Z,94897.03
2022-10-22T15:20:29.084Z,94904.19
2022-10-22T15:22:56.454Z,94911.28
2022-10-22T15:25:23.203Z,94903.69
2022-10-22T15:27:51.309Z,94917.19
2022-10-22T15:30:20.819Z,94909.22
2022-10-22T15:32:47.397Z,94916.63
2022-10-22T15:35:14.062Z,94921.22
2022-10-22T15:37:40.663Z,94920.84
2022-10-22T15:40:08.633Z,94929.69
2022-10-22T15:42:35.370Z,94924.38
2022-10-22T15:45:02.299Z,94928.25
2022-10-22T15:47:31.157Z,94929.50
2022-10-22T15:49:58.059Z,94938.50
2022-10-22T15:52:24.722Z,94931.06
2022-10-22T15:54:51.301Z,94938.13
2022-10-22T15:57:18.018Z,94944.84
2022-10-22T15:59:44.636Z,94947.31
2022-10-22T16:02:11.816Z,94950.50
2022-10-22T16:04:41.774Z,94945.00
2022-10-22T16:07:08.339Z,94950.13
2022-10-22T16:09:34.912Z,94935.91
2022-10-22T16:12:01.495Z,94944.94
2022-10-22T16:14:29.026Z,94942.66
2022-10-22T16:16:55.895Z,94946.13
2022-10-22T16:19:23.965Z,94947.78
2022-10-22T16:21:52.691Z,94942.44
2022-10-22T16:24:20.340Z,94947.38
2022-10-22T16:26:47.946Z,94944.34
2022-10-22T16:29:14.826Z,94945.72
2022-10-22T16:31:43.637Z,94940.66
2022-10-22T16:34:10.534Z,94948.34
2022-10-22T16:36:38.243Z,94946.38
2022-10-22T16:39:05.994Z,94948.63
2022-10-22T16:41:35.538Z,94948.78
2022-10-22T16:44:06.308Z,94957.56
2022-10-22T16:46:33.705Z,94953.59
2022-10-22T16:49:00.462Z,94958.53
2022-10-22T16:51:28.404Z,94958.84
2022-10-22T16:53:56.481Z,94958.47
2022-10-22T16:56:24.198Z,94964.06
2022-10-22T16:58:56.830Z,94961.03
2022-10-22T17:01:26.604Z,94969.81
2022-10-22T17:03:54.757Z,94970.84
2022-10-22T17:06:23.670Z,94977.00
2022-10-22T17:08:50.451Z,94975.91
2022-10-22T17:11:23.292Z,94970.91
2022-10-22T17:13:52.901Z,94980.91
2022-10-22T17:16:22.530Z,94977.84
2022-10-22T17:18:49.130Z,94978.69
2022-10-22T17:21:16.575Z,94982.34
2022-10-22T17:23:43.274Z,94985.31
2022-10-22T17:26:17.970Z,94989.28
2022-10-22T17:28:45.192Z,94988.16
2022-10-22T17:31:23.544Z,94998.56
2022-10-22T17:33:52.238Z,95001.34
2022-10-22T17:36:20.422Z,94996.31
2022-10-22T17:38:52.720Z,95001.22
2022-10-22T17:41:28.122Z,95010.69
2022-10-22T17:43:56.597Z,95008.88
2022-10-22T17:46:25.349Z,95013.53
2022-10-22T17:48:53.884Z,95015.78
2022-10-22T17:51:21.889Z,95012.72
2022-10-22T17:53:51.887Z,95009.69
2022-10-22T17:56:23.913Z,95009.97
2022-10-22T17:58:51.105Z,95008.66
2022-10-22T18:01:26.659Z,95009.66
2022-10-22T18:03:55.186Z,95008.34
2022-10-22T18:06:22.029Z,95003.31
2022-10-22T18:08:48.911Z,95006.78
2022-10-22T18:11:21.104Z,95010.41
2022-10-22T18:13:53.184Z,95012.66
2022-10-22T18:16:20.290Z,95008.16
2022-10-22T18:18:48.459Z,95008.97
2022-10-22T18:21:16.267Z,95017.19
2022-10-22T18:23:42.988Z,95023.28
2022-10-22T18:26:09.555Z,95026.22
2022-10-22T18:28:36.431Z,95019.78
2022-10-22T18:31:07.967Z,95022.53
2022-10-22T18:33:36.944Z,95017.00
2022-10-22T18:36:09.109Z,95009.38
2022-10-22T18:38:38.199Z,95011.38
2022-10-22T18:41:10.062Z,95004.66
2022-10-22T18:43:36.911Z,95006.16
2022-10-22T18:46:07.004Z,95003.81
2022-10-22T18:48:34.942Z,95001.44
2022-10-22T18:51:04.769Z,94997.69
2022-10-22T18:53:31.466Z,95003.25
2022-10-22T18:55:58.295Z,94998.25
2022-10-22T18:58:24.826Z,94992.09
2022-10-22T19:00:51.741Z,95002.91
2022-10-22T19:03:18.572Z,94997.88
2022-10-22T19:05:47.812Z,94996.75
2022-10-22T19:08:16.979Z,94992.97
2022-10-22T19:10:45.360Z,94998.72
2022-10-22T19:13:17.838Z,94998.81
2022-10-22T19:15:44.401Z,95007.22
2022-10-22T19:18:11.382Z,95001.50
2022-10-22T19:20:38.833Z,95003.22
2022-10-22T19:23:06.032Z,95008.78
2022-10-22T19:25:38.976Z,95003.56
2022-10-22T19:28:05.685Z,95000.00
2022-10-22T19:30:32.210Z,95000.25
2022-10-22T19:32:58.839Z,94997.19
2022-10-22T19:35:25.394Z,95002.25
2022-10-22T19:37:52.245Z,95005.16
2022-10-22T19:40:18.873Z,95004.25
2022-10-22T19:42:49.931Z,95000.16
2022-10-22T19:45:18.155Z,94998.78
2022-10-22T19:47:44.856Z,94996.88
2022-10-22T19:50:11.475Z,95003.13
2022-10-22T19:52:38.018Z,95001.97
2022-10-22T19:55:05.477Z,95005.09
2022-10-22T19:57:32.069Z,94990.97
2022-10-22T19:59:58.586Z,94995.56
2022-10-22T20:02:26.303Z,94993.16
2022-10-22T20:04:52.890Z,95001.38
2022-10-22T20:07:19.421Z,95007.13
2022-10-22T20:09:46.097Z,95007.91
2022-10-22T20:12:12.610Z,95012.47
2022-10-22T20:14:40.116Z,95012.75
2022-10-22T20:17:06.889Z,95019.72
2022-10-22T20:19:33.497Z,95019.28
2022-10-22T20:24:31.755Z,95010.44
2022-10-22T20:26:58.350Z,95011.38
2022-10-22T20:29:25.011Z,95010.69
2022-10-22T20:31:52.036Z,95010.47
2022-10-22T20:34:18.635Z,95006.66
2022-10-22T20:36:45.210Z,95007.38
2022-10-22T20:39:14.872Z,95009.78
2022-10-22T20:41:41.889Z,95012.22
2022-10-22T20:44:14.607Z,95004.53
2022-10-22T20:46:41.707Z,94998.34
2022-10-22T20:49:20.739Z,95012.50
2022-10-22T20:51:47.286Z,95014.25
2022-10-22T20:54:17.227Z,95017.09
2022-10-22T20:56:43.948Z,95021.16
2022-10-22T20:59:12.226Z,95011.81
2022-10-22T21:01:41.552Z,95011.13
2022-10-22T21:04:08.866Z,95012.09
2022-10-22T21:06:39.029Z,95008.03
2022-10-22T21:09:06.933Z,95007.81
2022-10-22T21:11:34.354Z,95017.41
2022-10-22T21:14:01.197Z,95012.63
2022-10-22T21:16:32.302Z,95010.47
2022-10-22T21:18:59.535Z,95010.97
2022-10-22T21:21:26.228Z,95007.38
2022-10-22T21:23:53.003Z,95000.69
2022-10-22T21:26:21.086Z,95000.47
2022-10-22T21:28:47.650Z,95004.31
2022-10-22T21:31:21.599Z,95009.34
2022-10-22T21:33:49.951Z,94997.34
2022-10-22T21:36:20.279Z,95006.25
2022-10-22T21:38:49.618Z,95000.75
2022-10-22T21:41:18.141Z,95001.22
2022-10-22T21:43:45.853Z,95005.56
2022-10-22T21:46:23.047Z,95000.78
2022-10-22T21:49:03.884Z,94992.63
2022-10-22T21:51:33.120Z,94993.16
2022-10-22T21:54:00.322Z,94987.63
2022-10-22T21:56:29.850Z,94985.47
2022-10-22T21:58:56.571Z,94987.19
2022-10-22T22:01:23.458Z,94993.66
2022-10-22T22:03:51.304Z,94983.59
2022-10-22T22:06:21.654Z,94986.00
2022-10-22T22:08:49.474Z,94983.16
2022-10-22T22:11:19.938Z,94977.88
2022-10-22T22:13:48.821Z,94988.19
2022-10-22T22:16:21.272Z,94989.88
2022-10-22T22:18:50.683Z,94987.72
2022-10-22T22:21:18.964Z,94989.41
2022-10-22T22:23:47.925Z,94985.34
2022-10-22T22:26:16.971Z,94981.25
2022-10-22T22:28:43.599Z,94972.44
2022-10-22T22:31:19.212Z,94971.00
2022-10-22T22:33:45.913Z,94966.00
2022-10-22T22:36:12.868Z,94960.50
2022-10-22T22:38:40.462Z,94960.50
2022-10-22T22:41:08.276Z,94967.44
2022-10-22T22:43:36.337Z,94969.16
2022-10-22T22:46:10.208Z,94970.31
2022-10-22T22:48:37.160Z,94966.03
2022-10-22T22:51:05.109Z,94960.06
2022-10-22T22:53:33.365Z,94959.13
2022-10-22T22:56:21.190Z,94948.34
2022-10-22T22:58:48.274Z,94953.88
2022-10-22T23:01:16.739Z,94955.09
2022-10-22T23:03:46.538Z,94951.47
2022-10-22T23:06:14.193Z,94944.78
2022-10-22T23:08:41.601Z,94946.50
2022-10-22T23:11:11.689Z,94933.56
2022-10-22T23:13:39.087Z,94934.78
2022-10-22T23:16:18.192Z,94937.88
2022-10-22T23:18:46.259Z,94933.59
2022-10-22T23:21:18.776Z,94934.06
2022-10-22T23:23:51.513Z,94929.28
2022-10-22T23:26:21.608Z,94932.41
2022-10-22T23:28:48.648Z,94932.19
2022-10-22T23:31:17.749Z,94919.28
2022-10-22T23:33:44.576Z,94930.25
2022-10-22T23:36:12.146Z,94921.66
2022-10-22T23:38:40.523Z,94935.31
2022-10-22T23:41:07.967Z,94926.47
2022-10-22T23:43:36.155Z,94921.69
2022-10-22T23:46:07.158Z,94914.25
2022-10-22T23:48:34.054Z,94919.78
2022-10-22T23:51:08.474Z,94919.06
2022-10-22T23:53:35.086Z,94913.09
2022-10-22T23:56:06.422Z,94912.63
2022-10-22T23:58:33.767Z,94907.13
